Thursday, November 14, 2019, 9:18 PM EST
Back to Local

KEEN, Keene, Dillant-hopkins Airport

Location: Keene, NH, United States Lat: 42.9
Local Time: 9:18 PM EST ( 2:18 GMT) Lon: -72.267
Time Zone: US/Eastern Elev: 488 ft

Show me the last for .
Show Decoded

2019-11-14 20:56 METAR KEEN 150156Z AUTO 00000KT 10SM FEW120 M02/M05 A3027 RMK AO2 SLP260
                 T10221050 FZRANO $ =
2019-11-14 19:56 METAR KEEN 150056Z AUTO 00000KT 10SM FEW110 M03/M06 A3027 RMK AO2 SLP262
                 T10281056 FZRANO $ =
2019-11-14 18:56 METAR KEEN 142356Z AUTO 00000KT 10SM BKN120 M02/M06 A3028 RMK AO2 SLP264 60000
                 T10171056 10006 21017 57014 FZRANO $ =
2019-11-14 17:56 METAR KEEN 142256Z AUTO VRB03KT 10SM BKN090 OVC100 M01/M05 A3029 RMK AO2 SLP270
                 T10111050 FZRANO $ =
2019-11-14 16:56 METAR KEEN 142156Z AUTO 00000KT 10SM OVC080 M01/M06 A3030 RMK AO2 SLP274
                 T10111061 FZRANO $ =
2019-11-14 15:56 METAR KEEN 142056Z AUTO 00000KT 10SM OVC090 00/M06 A3032 RMK AO2 SLP279 60000
                 T00001061 58011 FZRANO $ =
2019-11-14 14:56 METAR KEEN 141956Z AUTO 00000KT 10SM OVC085 01/M08 A3033 RMK AO2
                 UPB1857E06RAB06E07 SLP284 P0000 T00061078 FZRANO $ =
2019-11-14 13:56 METAR KEEN 141856Z AUTO 00000KT 8SM SCT026 OVC080 00/M08 A3035 RMK AO2 SLP289
                 T00001083 FZRANO $ =
2019-11-14 13:54 METAR KEEN 141854Z AUTO 00000KT 10SM SCT026 OVC080 00/M08 A3035 RMK AO2 FZRANO $
                 =
2019-11-14 13:28 METAR KEEN 141828Z AUTO 29004KT 10SM BKN028 BKN085 OVC100 M01/M08 A3036 RMK AO2
                 FZRANO $ =
2019-11-14 13:12 METAR KEEN 141812Z AUTO 30006KT 10SM OVC030 M01/M08 A3037 RMK AO2 FZRANO $ =
2019-11-14 12:56 METAR KEEN 141756Z AUTO 25007KT 210V270 10SM OVC028 00/M07 A3037 RMK AO2 SLP297
                 60000 T00001072 10000 21094 56024 FZRANO $ =
2019-11-14 11:56 METAR KEEN 141656Z AUTO 17007KT 10SM OVC028 M02/M09 A3039 RMK AO2 SLP303
                 T10171094 FZRANO $ =
2019-11-14 11:11 METAR KEEN 141611Z AUTO 20006KT 10SM OVC028 M03/M11 A3041 RMK AO2 FZRANO $ =
2019-11-14 10:56 METAR KEEN 141556Z AUTO 20005KT 10SM BKN030 OVC037 M03/M11 A3041 RMK AO2
                 SNB24E37 SLP313 P0000 T10281106 FZRANO $ =
2019-11-14 09:56 METAR KEEN 141456Z AUTO 17004KT 10SM OVC035 M04/M11 A3044 RMK AO2 SLP321
                 T10441106 50001 FZRANO $ =
2019-11-14 08:56 METAR KEEN 141356Z AUTO 00000KT 10SM BKN110 M06/M10 A3046 RMK AO2 SLP328
                 T10611100 FZRANO $ =
2019-11-14 07:56 METAR KEEN 141256Z AUTO 00000KT 10SM BKN120 M08/M10 A3045 RMK AO2 SLP326
                 T10831100 FZRANO $ =
2019-11-14 06:56 METAR KEEN 141156Z AUTO 00000KT 10SM SCT120 M10/M11 A3044 RMK AO2 SLP322
                 T11001106 11094 21111 55004 FZRANO $ =
2019-11-14 05:56 METAR KEEN 141056Z AUTO 19003KT 10SM CLR M11/M12 A3043 RMK AO2 SLP321 T11111122
                 FZRANO $ =
2019-11-14 04:56 METAR KEEN 140956Z AUTO 00000KT 10SM CLR M09/M11 A3044 RMK AO2 SLP321 T10941111
                 FZRANO $ =
2019-11-14 03:56 METAR KEEN 140856Z AUTO 00000KT 10SM CLR M10/M11 A3045 RMK AO2 SLP324 T11001111
                 53003 FZRANO $ =
2019-11-14 02:56 METAR KEEN 140756Z AUTO 00000KT 10SM CLR M11/M12 A3044 RMK AO2 SLP320 T11111122
                 FZRANO $ =
2019-11-14 01:56 METAR KEEN 140656Z AUTO 00000KT 10SM SCT100 M09/M12 A3045 RMK AO2 SLP324
                 T10941117 FZRANO $ =
2019-11-14 00:56 METAR KEEN 140556Z AUTO 00000KT 10SM FEW120 M10/M12 A3044 RMK AO2 SLP322
                 T11001117 11089 21106 52009 FZRANO $ =
2019-11-13 23:56 METAR KEEN 140456Z AUTO 00000KT 10SM BKN110 M10/M12 A3044 RMK AO2 SLP320
                 T11001122 410281111 FZRANO $ =
2019-11-13 22:56 METAR KEEN 140356Z AUTO 00000KT 10SM CLR M11/M13 A3042 RMK AO2 SLP313 T11061128
                 FZRANO $ =
2019-11-13 21:56 METAR KEEN 140256Z AUTO 00000KT 10SM CLR M11/M13 A3041 RMK AO2 SLP312 T11061133
                 53010 FZRANO $ =

Support USWX by starting your Amazon purchase here.